Aviation Digital Data Service (ADDS)

Output produced by METARs form (1418 UTC 31 August 2016)
found at http://aviationweather.gov/adds/metars/
 
KMIV 311301Z 3113/0112 24003KT 3SM BR BKN001 
     FM311400 21003KT P6SM SCT250 
     FM312000 19007KT P6SM SCT050 
     FM010500 19003KT P6SM BKN070 
     FM010800 VRB03KT 6SM -SHRA BR OVC060